createdAt,value
2023-02-08T00:01:26.140Z,-3.77
2023-02-08T00:03:54.437Z,-3.55
2023-02-08T00:06:22.467Z,-3.59
2023-02-08T00:08:50.355Z,-3.69
2023-02-08T00:11:18.263Z,-3.64
2023-02-08T00:13:46.573Z,-3.75
2023-02-08T00:16:15.927Z,-3.71
2023-02-08T00:18:43.870Z,-3.68
2023-02-08T00:21:16.264Z,-3.84
2023-02-08T00:23:45.003Z,-4.01
2023-02-08T00:26:13.424Z,-3.80
2023-02-08T00:28:41.446Z,-3.66
2023-02-08T00:31:09.586Z,-3.47
2023-02-08T00:33:37.525Z,-3.68
2023-02-08T00:36:08.588Z,-3.77
2023-02-08T00:38:37.132Z,-4.00
2023-02-08T00:41:05.798Z,-3.98
2023-02-08T00:43:33.795Z,-4.01
2023-02-08T00:46:01.873Z,-4.16
2023-02-08T00:48:30.277Z,-3.99
2023-02-08T00:51:14.372Z,-4.12
2023-02-08T00:53:45.847Z,-4.17
2023-02-08T00:56:15.397Z,-4.04
2023-02-08T00:58:43.683Z,-3.77
2023-02-08T01:01:12.234Z,-3.79
2023-02-08T01:03:42.629Z,-3.50
2023-02-08T01:06:16.868Z,-3.74
2023-02-08T01:08:45.073Z,-4.04
2023-02-08T01:11:22.280Z,-4.07
2023-02-08T01:13:53.121Z,-4.24
2023-02-08T01:16:29.716Z,-4.20
2023-02-08T01:19:00.779Z,-4.27
2023-02-08T01:21:37.388Z,-4.28
2023-02-08T01:24:06.958Z,-4.29
2023-02-08T01:26:35.475Z,-3.95
2023-02-08T01:29:04.703Z,-3.84
2023-02-08T01:31:37.690Z,-4.07
2023-02-08T01:34:06.913Z,-4.03
2023-02-08T01:36:35.477Z,-4.33
2023-02-08T01:39:05.764Z,-4.74
2023-02-08T01:41:44.957Z,-4.85
2023-02-08T01:44:12.624Z,-4.79
2023-02-08T01:46:48.708Z,-4.63
2023-02-08T01:49:33.411Z,-4.65
2023-02-08T01:52:16.514Z,-4.60
2023-02-08T01:54:59.093Z,-4.46
2023-02-08T01:57:27.670Z,-4.43
2023-02-08T02:00:08.481Z,-4.17
2023-02-08T02:02:38.596Z,-4.37
2023-02-08T02:05:08.088Z,-4.09
2023-02-08T02:07:36.509Z,-4.19
2023-02-08T02:10:25.752Z,-4.17
2023-02-08T02:12:56.878Z,-4.22
2023-02-08T02:15:24.778Z,-4.07
2023-02-08T02:17:52.709Z,-4.29
2023-02-08T02:21:17.111Z,-4.38
2023-02-08T02:24:25.744Z,-4.28
2023-02-08T02:27:22.568Z,-4.32
2023-02-08T02:30:16.447Z,-4.14
2023-02-08T02:33:13.215Z,-4.12
2023-02-08T02:36:45.537Z,-4.35
2023-02-08T02:39:37.425Z,-4.44
2023-02-08T02:43:01.665Z,-4.57
2023-02-08T02:46:08.720Z,-4.39
2023-02-08T02:48:48.581Z,-4.48
2023-02-08T02:51:37.469Z,-4.88
2023-02-08T02:54:16.774Z,-4.83
2023-02-08T02:56:50.036Z,-4.65
2023-02-08T02:59:19.517Z,-4.64
2023-02-08T03:01:47.796Z,-4.37
2023-02-08T03:04:33.607Z,-4.27
2023-02-08T03:07:21.034Z,-4.45
2023-02-08T03:10:23.139Z,-4.37
2023-02-08T03:13:55.925Z,-4.28
2023-02-08T03:17:08.259Z,-4.25
2023-02-08T03:20:18.129Z,-4.11
2023-02-08T03:22:59.388Z,-3.80
2023-02-08T03:26:15.900Z,-3.95
2023-02-08T03:29:20.032Z,-3.98
2023-02-08T03:32:09.113Z,-4.23
2023-02-08T03:35:17.971Z,-4.04
2023-02-08T03:38:08.721Z,-4.03
2023-02-08T03:40:49.235Z,-4.13
2023-02-08T03:43:22.174Z,-4.38
2023-02-08T03:46:03.968Z,-3.98
2023-02-08T03:48:34.459Z,-3.96
2023-02-08T03:51:04.680Z,-4.20
2023-02-08T03:53:38.257Z,-4.06
2023-02-08T03:56:20.375Z,-4.28
2023-02-08T03:59:07.140Z,-4.44
2023-02-08T04:01:45.562Z,-4.38
2023-02-08T04:04:18.668Z,-4.50
2023-02-08T04:06:46.699Z,-4.47
2023-02-08T04:09:14.936Z,-4.59
2023-02-08T04:11:42.942Z,-4.35
2023-02-08T04:14:10.799Z,-4.63
2023-02-08T04:16:38.698Z,-4.83
2023-02-08T04:19:06.571Z,-4.72
2023-02-08T04:21:34.412Z,-4.08
2023-02-08T04:24:04.428Z,-4.40
2023-02-08T04:26:32.301Z,-4.21
2023-02-08T04:29:00.270Z,-4.37
2023-02-08T04:31:28.324Z,-4.68
2023-02-08T04:33:56.347Z,-4.48
2023-02-08T04:36:25.578Z,-4.05
2023-02-08T04:38:53.445Z,-4.70
2023-02-08T04:41:21.440Z,-4.87
2023-02-08T04:43:49.403Z,-4.86
2023-02-08T04:46:17.260Z,-4.69
2023-02-08T04:48:45.163Z,-4.31
2023-02-08T04:51:13.292Z,-4.36
2023-02-08T04:53:41.137Z,-4.09
2023-02-08T04:56:09.037Z,-4.61
2023-02-08T04:58:37.389Z,-4.56
2023-02-08T05:01:10.805Z,-4.80
2023-02-08T05:03:40.799Z,-4.84
2023-02-08T05:06:08.748Z,-5.01
2023-02-08T05:08:36.628Z,-4.85
2023-02-08T05:11:05.000Z,-4.78
2023-02-08T05:13:32.996Z,-4.95
2023-02-08T05:16:00.906Z,-4.95
2023-02-08T05:18:28.855Z,-4.66
2023-02-08T05:21:01.194Z,-4.55
2023-02-08T05:23:32.212Z,-4.42
2023-02-08T05:26:00.435Z,-4.45
2023-02-08T05:28:28.219Z,-4.88
2023-02-08T05:30:56.145Z,-4.34
2023-02-08T05:33:24.012Z,-4.60
2023-02-08T05:35:51.881Z,-4.74
2023-02-08T05:38:19.741Z,-4.72
2023-02-08T05:40:47.579Z,-4.62
2023-02-08T05:43:15.429Z,-4.73
2023-02-08T05:45:43.289Z,-4.63
2023-02-08T05:48:11.241Z,-4.59
2023-02-08T05:50:39.464Z,-4.47
2023-02-08T05:53:07.442Z,-4.26
2023-02-08T05:55:35.507Z,-4.20
2023-02-08T05:58:03.437Z,-4.11
2023-02-08T06:00:31.316Z,-3.98
2023-02-08T06:02:59.224Z,-3.92
2023-02-08T06:05:27.120Z,-3.85
2023-02-08T06:07:55.163Z,-3.63
2023-02-08T06:10:23.076Z,-3.37
2023-02-08T06:12:50.906Z,-3.31
2023-02-08T06:15:18.934Z,-3.40
2023-02-08T06:17:46.859Z,-3.53
2023-02-08T06:20:14.821Z,-3.86
2023-02-08T06:22:42.729Z,-3.97
2023-02-08T06:25:10.634Z,-3.64
2023-02-08T06:27:38.563Z,-3.91
2023-02-08T06:30:07.026Z,-3.94
2023-02-08T06:32:34.920Z,-3.71
2023-02-08T06:35:02.992Z,-3.52
2023-02-08T06:37:30.895Z,-3.58
2023-02-08T06:40:00.534Z,-4.11
2023-02-08T06:42:31.091Z,-3.49
2023-02-08T06:44:59.314Z,-3.41
2023-02-08T06:47:27.928Z,-3.34
2023-02-08T06:49:55.872Z,-3.14
2023-02-08T06:52:23.843Z,-2.98
2023-02-08T06:54:53.133Z,-2.83
2023-02-08T06:57:20.967Z,-3.03
2023-02-08T06:59:48.847Z,-3.14
2023-02-08T07:02:20.421Z,-2.80
2023-02-08T07:04:48.805Z,-3.08
2023-02-08T07:07:19.049Z,-2.86
2023-02-08T07:09:47.086Z,-2.59
2023-02-08T07:12:15.183Z,-2.56
2023-02-08T07:14:44.255Z,-2.44
2023-02-08T07:17:13.537Z,-2.96
2023-02-08T07:19:41.519Z,-2.92
2023-02-08T07:22:09.555Z,-2.54
2023-02-08T07:24:41.610Z,-2.52
2023-02-08T07:27:13.869Z,-2.42
2023-02-08T07:29:41.997Z,-2.33
2023-02-08T07:32:11.555Z,-2.09
2023-02-08T07:34:40.757Z,-2.16
2023-02-08T07:37:08.703Z,-3.07
2023-02-08T07:39:36.560Z,-2.45
2023-02-08T07:42:06.595Z,-2.07
2023-02-08T07:44:34.750Z,-2.09
2023-02-08T07:47:02.654Z,-2.02
2023-02-08T07:49:32.208Z,-2.09
2023-02-08T07:52:01.580Z,-2.01
2023-02-08T07:54:30.263Z,-2.11
2023-02-08T07:56:58.131Z,-1.78
2023-02-08T07:59:26.123Z,-1.85
2023-02-08T08:01:53.977Z,-1.40
2023-02-08T08:04:22.102Z,-1.71
2023-02-08T08:06:51.435Z,-1.85
2023-02-08T08:09:20.502Z,-1.35
2023-02-08T08:11:48.458Z,-1.45
2023-02-08T08:14:16.294Z,-1.40
2023-02-08T08:16:44.262Z,-0.98
2023-02-08T08:19:12.189Z,-2.34
2023-02-08T08:21:40.521Z,-1.85
2023-02-08T08:24:08.479Z,-1.33
2023-02-08T08:26:36.375Z,-0.89
2023-02-08T08:29:04.260Z,-1.26
2023-02-08T08:31:32.180Z,-1.44
2023-02-08T08:34:02.155Z,-1.26
2023-02-08T08:36:30.810Z,-0.87
2023-02-08T08:38:58.928Z,-0.64
2023-02-08T08:41:28.199Z,-0.59
2023-02-08T08:43:56.088Z,-0.20
2023-02-08T08:46:24.034Z,-0.13
2023-02-08T08:48:52.687Z,-0.76
2023-02-08T08:51:20.967Z,0.05
2023-02-08T08:53:48.856Z,-0.04
2023-02-08T08:56:16.742Z,0.16
2023-02-08T08:58:44.603Z,-0.37
2023-02-08T09:01:13.938Z,-0.22
2023-02-08T09:03:41.848Z,-0.01
2023-02-08T09:06:10.168Z,0.45
2023-02-08T09:08:38.289Z,0.25
2023-02-08T09:11:13.089Z,0.13
2023-02-08T09:13:42.405Z,0.65
2023-02-08T09:16:17.864Z,-0.52
2023-02-08T09:18:46.421Z,-0.23
2023-02-08T09:21:21.851Z,-0.09
2023-02-08T09:23:49.742Z,-0.29
2023-02-08T09:26:20.160Z,0.51
2023-02-08T09:28:48.617Z,0.57
2023-02-08T09:31:27.887Z,0.85
2023-02-08T09:34:00.131Z,-0.01
2023-02-08T09:36:34.796Z,0.49
2023-02-08T09:39:21.764Z,0.07
2023-02-08T09:42:20.923Z,0.49
2023-02-08T09:45:47.937Z,0.76
2023-02-08T09:48:26.510Z,0.54
2023-02-08T09:51:50.180Z,0.95
2023-02-08T09:54:46.382Z,0.92
2023-02-08T09:57:22.264Z,0.66
2023-02-08T10:00:04.379Z,0.90
2023-02-08T10:02:34.720Z,1.43
2023-02-08T10:05:14.746Z,1.72
2023-02-08T10:07:43.754Z,1.83
2023-02-08T10:11:00.482Z,1.35
2023-02-08T10:14:34.273Z,0.66
2023-02-08T10:18:00.737Z,1.14
2023-02-08T10:20:46.757Z,0.81
2023-02-08T10:24:03.473Z,1.33
2023-02-08T10:26:49.009Z,0.81
2023-02-08T10:29:44.432Z,1.51
2023-02-08T10:32:36.337Z,1.20
2023-02-08T10:35:24.443Z,1.08
2023-02-08T10:37:53.171Z,0.91
2023-02-08T10:40:32.392Z,1.34
2023-02-08T10:43:35.660Z,2.00
2023-02-08T10:46:35.542Z,1.84
2023-02-08T10:49:45.428Z,2.32
2023-02-08T10:52:13.345Z,1.60
2023-02-08T10:54:41.309Z,1.85
2023-02-08T10:57:22.026Z,1.94
2023-02-08T11:00:09.597Z,2.21
2023-02-08T11:02:43.202Z,2.37
2023-02-08T11:05:35.781Z,2.27
2023-02-08T11:08:19.757Z,2.53
2023-02-08T11:10:59.419Z,2.63
2023-02-08T11:13:45.760Z,2.51
2023-02-08T11:16:26.708Z,2.34
2023-02-08T11:18:58.996Z,2.20
2023-02-08T11:21:40.727Z,2.44
2023-02-08T11:24:35.984Z,2.86
2023-02-08T11:27:15.167Z,3.43
2023-02-08T11:29:43.456Z,3.34
2023-02-08T11:32:20.731Z,3.13
2023-02-08T11:34:48.816Z,2.02
2023-02-08T11:37:28.538Z,2.73
2023-02-08T11:40:01.977Z,2.46
2023-02-08T11:42:44.343Z,2.21
2023-02-08T11:45:46.458Z,2.93
2023-02-08T11:48:37.552Z,3.42
2023-02-08T11:51:05.924Z,2.82
2023-02-08T11:53:47.773Z,3.65
2023-02-08T11:56:27.655Z,3.07
2023-02-08T11:59:12.439Z,3.17
2023-02-08T12:01:43.513Z,2.95
2023-02-08T12:04:15.803Z,2.75
2023-02-08T12:07:20.450Z,3.51
2023-02-08T12:10:42.186Z,2.79
2023-02-08T12:13:44.656Z,3.72
2023-02-08T12:16:45.416Z,3.20
2023-02-08T12:20:16.441Z,3.50
2023-02-08T12:23:18.190Z,4.21
2023-02-08T12:26:17.571Z,3.92
2023-02-08T12:29:05.817Z,4.24
2023-02-08T12:32:06.432Z,3.67
2023-02-08T12:35:36.929Z,2.88
2023-02-08T12:39:18.324Z,4.36
2023-02-08T12:42:11.909Z,4.55
2023-02-08T12:45:17.548Z,4.64
2023-02-08T12:48:04.081Z,4.43
2023-02-08T12:51:38.455Z,4.64
2023-02-08T12:54:40.366Z,4.61
2023-02-08T12:57:14.238Z,3.73
2023-02-08T13:00:30.278Z,4.79
2023-02-08T13:03:33.143Z,5.27
2023-02-08T13:06:08.436Z,4.27
2023-02-08T13:08:52.379Z,5.06
2023-02-08T13:11:51.012Z,5.26
2023-02-08T13:14:45.544Z,5.66
2023-02-08T13:17:40.048Z,5.53
2023-02-08T13:20:32.559Z,5.73
2023-02-08T13:23:25.426Z,4.67
2023-02-08T13:26:03.168Z,5.80
2023-02-08T13:28:31.444Z,5.71
2023-02-08T13:31:11.563Z,5.68
2023-02-08T13:34:12.094Z,5.53
2023-02-08T13:36:51.688Z,5.54
2023-02-08T13:39:42.282Z,3.99
2023-02-08T13:42:42.584Z,4.79
2023-02-08T13:45:40.980Z,5.52
2023-02-08T13:48:14.536Z,5.29
2023-02-08T13:50:46.710Z,4.70
2023-02-08T13:53:17.337Z,3.58
2023-02-08T13:56:01.643Z,4.38
2023-02-08T13:58:57.942Z,3.97
2023-02-08T14:01:36.042Z,4.31
2023-02-08T14:04:12.786Z,3.33
2023-02-08T14:06:57.558Z,3.85
2023-02-08T14:10:13.425Z,5.04
2023-02-08T14:12:57.654Z,4.96
2023-02-08T14:15:39.484Z,3.82
2023-02-08T14:18:28.602Z,4.74
2023-02-08T14:21:07.344Z,4.24
2023-02-08T14:23:40.162Z,4.05
2023-02-08T14:26:24.215Z,4.23
2023-02-08T14:28:58.394Z,3.95
2023-02-08T14:31:45.141Z,3.23
2023-02-08T14:34:36.055Z,3.45
2023-02-08T14:37:36.307Z,3.69
2023-02-08T14:40:25.351Z,3.76
2023-02-08T14:43:21.229Z,3.49
2023-02-08T14:45:54.173Z,3.77
2023-02-08T14:48:37.157Z,4.05
2023-02-08T14:51:11.177Z,4.08
2023-02-08T14:54:14.812Z,3.92
2023-02-08T14:57:40.657Z,3.80
2023-02-08T15:00:20.555Z,4.16
2023-02-08T15:02:49.382Z,3.60
2023-02-08T15:05:31.145Z,3.50
2023-02-08T15:08:02.783Z,3.79
2023-02-08T15:10:35.025Z,3.67
2023-02-08T15:13:16.701Z,3.91
2023-02-08T15:15:49.091Z,3.41
2023-02-08T15:18:27.427Z,2.90
2023-02-08T15:21:15.507Z,2.96
2023-02-08T15:23:43.375Z,2.92
2023-02-08T15:26:23.937Z,2.77
2023-02-08T15:28:52.181Z,2.53
2023-02-08T15:31:28.748Z,2.57
2023-02-08T15:33:59.017Z,1.90
2023-02-08T15:36:37.482Z,2.19
2023-02-08T15:39:31.789Z,2.20
2023-02-08T15:42:00.168Z,2.24
2023-02-08T15:44:34.831Z,2.26
2023-02-08T15:47:09.841Z,2.25
2023-02-08T15:49:43.585Z,2.42
2023-02-08T15:52:23.602Z,1.61
2023-02-08T15:54:53.052Z,1.53
2023-02-08T15:57:46.826Z,1.34
2023-02-08T16:00:32.241Z,1.13
2023-02-08T16:03:15.383Z,0.92
2023-02-08T16:05:56.564Z,0.88
2023-02-08T16:08:40.082Z,0.74
2023-02-08T16:11:33.357Z,0.54
2023-02-08T16:14:04.626Z,0.27
2023-02-08T16:16:39.746Z,0.24
2023-02-08T16:19:25.845Z,0.23
2023-02-08T16:22:17.090Z,0.26
2023-02-08T16:24:46.875Z,0.02
2023-02-08T16:27:29.342Z,-0.04
2023-02-08T16:29:59.380Z,-0.07
2023-02-08T16:32:36.887Z,-0.08
2023-02-08T16:35:26.614Z,0.00
2023-02-08T16:38:02.699Z,0.14
2023-02-08T16:40:51.307Z,0.32
2023-02-08T16:43:32.489Z,0.60
2023-02-08T16:46:15.321Z,0.96
2023-02-08T16:48:56.663Z,0.97
2023-02-08T16:51:31.820Z,0.98
2023-02-08T16:54:07.697Z,1.00
2023-02-08T16:56:37.518Z,1.10
2023-02-08T16:59:06.122Z,0.63
2023-02-08T17:01:35.093Z,1.01
2023-02-08T17:04:03.141Z,1.03
2023-02-08T17:06:38.302Z,0.96
2023-02-08T17:09:09.221Z,1.10
2023-02-08T17:11:37.711Z,1.13
2023-02-08T17:14:06.488Z,0.91
2023-02-08T17:16:36.621Z,0.56
2023-02-08T17:19:06.268Z,0.24
2023-02-08T17:21:34.247Z,0.33
2023-02-08T17:24:02.211Z,0.55
2023-02-08T17:26:39.658Z,0.54
2023-02-08T17:29:08.200Z,0.54
2023-02-08T17:31:36.740Z,0.53
2023-02-08T17:34:04.798Z,0.13
2023-02-08T17:36:36.994Z,0.00
2023-02-08T17:39:06.390Z,-0.29
2023-02-08T17:41:35.383Z,-0.34
2023-02-08T17:44:04.165Z,-0.34
2023-02-08T17:46:32.719Z,-0.46
2023-02-08T17:49:01.641Z,-0.61
2023-02-08T17:51:30.604Z,-0.74
2023-02-08T17:53:58.537Z,-0.73
2023-02-08T17:56:28.950Z,-0.63
2023-02-08T17:58:57.668Z,-0.68
2023-02-08T18:01:28.514Z,-0.66
2023-02-08T18:03:57.069Z,-1.05
2023-02-08T18:06:25.181Z,-1.08
2023-02-08T18:08:54.964Z,-0.77
2023-02-08T18:11:23.918Z,-0.97
2023-02-08T18:13:53.871Z,-1.01
2023-02-08T18:16:27.707Z,-1.05
2023-02-08T18:18:59.105Z,-0.82
2023-02-08T18:21:27.124Z,-0.69
2023-02-08T18:23:55.569Z,-0.54
2023-02-08T18:26:25.201Z,-0.30
2023-02-08T18:28:53.758Z,-0.22
2023-02-08T18:31:22.182Z,-0.44
2023-02-08T18:33:51.575Z,-0.69
2023-02-08T18:36:21.322Z,-0.37
2023-02-08T18:38:53.253Z,-0.63
2023-02-08T18:41:26.498Z,-0.76
2023-02-08T18:43:57.208Z,-0.98
2023-02-08T18:46:28.205Z,-0.99
2023-02-08T18:48:56.242Z,-1.10
2023-02-08T18:51:26.920Z,-1.33
2023-02-08T18:53:55.855Z,-1.32
2023-02-08T18:56:27.959Z,-1.05
2023-02-08T18:59:00.582Z,-1.21
2023-02-08T19:01:28.520Z,-1.16
2023-02-08T19:03:57.679Z,-1.10
2023-02-08T19:06:29.068Z,-1.34
2023-02-08T19:09:01.476Z,-0.90
2023-02-08T19:11:37.252Z,-0.68
2023-02-08T19:14:10.709Z,-0.68
2023-02-08T19:16:39.702Z,-0.45
2023-02-08T19:19:07.650Z,-1.04
2023-02-08T19:21:36.270Z,-1.08
2023-02-08T19:24:04.857Z,-1.30
2023-02-08T19:26:39.609Z,-0.80
2023-02-08T19:29:13.484Z,-1.25
2023-02-08T19:31:43.386Z,-1.50
2023-02-08T19:34:12.527Z,-1.55
2023-02-08T19:36:52.064Z,-1.40
2023-02-08T19:39:27.471Z,-1.63
2023-02-08T19:41:58.571Z,-1.64
2023-02-08T19:44:29.127Z,-1.31
2023-02-08T19:46:58.763Z,-1.22
2023-02-08T19:49:28.284Z,-1.49
2023-02-08T19:51:57.339Z,-1.37
2023-02-08T19:54:25.734Z,-1.24
2023-02-08T19:56:54.780Z,-1.32
2023-02-08T19:59:28.095Z,-1.29
2023-02-08T20:01:56.454Z,-1.20
2023-02-08T20:04:24.980Z,-1.30
2023-02-08T20:06:54.091Z,-1.56
2023-02-08T20:09:22.373Z,-1.68
2023-02-08T20:11:57.194Z,-1.81
2023-02-08T20:14:32.918Z,-1.73
2023-02-08T20:17:02.800Z,-1.97
2023-02-08T20:19:30.906Z,-1.85
2023-02-08T20:21:58.848Z,-1.70
2023-02-08T20:24:27.006Z,-1.85
2023-02-08T20:26:55.206Z,-2.21
2023-02-08T20:29:23.191Z,-2.35
2023-02-08T20:31:57.371Z,-2.25
2023-02-08T20:34:27.704Z,-2.45
2023-02-08T20:37:06.723Z,-2.38
2023-02-08T20:39:37.379Z,-2.55
2023-02-08T20:42:05.988Z,-2.61
2023-02-08T20:44:33.978Z,-3.01
2023-02-08T20:47:02.026Z,-2.95
2023-02-08T20:49:32.328Z,-2.47
2023-02-08T20:52:00.473Z,-2.54
2023-02-08T20:54:28.422Z,-2.70
2023-02-08T20:56:56.985Z,-2.56
2023-02-08T20:59:24.871Z,-2.82
2023-02-08T21:01:52.885Z,-2.82
2023-02-08T21:04:23.445Z,-2.70
2023-02-08T21:06:52.458Z,-2.88
2023-02-08T21:09:21.206Z,-2.86
2023-02-08T21:11:50.583Z,-2.75
2023-02-08T21:14:23.233Z,-2.84
2023-02-08T21:16:58.617Z,-2.73
2023-02-08T21:19:29.890Z,-2.68
2023-02-08T21:22:01.709Z,-2.99
2023-02-08T21:24:30.850Z,-3.00
2023-02-08T21:26:58.981Z,-2.88
2023-02-08T21:29:29.078Z,-2.89
2023-02-08T21:31:57.854Z,-2.83
2023-02-08T21:34:25.788Z,-3.22
2023-02-08T21:36:53.732Z,-3.03
2023-02-08T21:39:23.224Z,-2.90
2023-02-08T21:41:52.992Z,-3.12
2023-02-08T21:44:20.967Z,-2.89
2023-02-08T21:46:48.804Z,-2.50
2023-02-08T21:49:35.099Z,-2.58
2023-02-08T21:52:22.068Z,-2.72
2023-02-08T21:54:53.528Z,-2.65
2023-02-08T21:57:27.332Z,-2.34
2023-02-08T22:00:04.941Z,-2.39
2023-02-08T22:02:32.812Z,-2.24
2023-02-08T22:05:22.342Z,-1.95
2023-02-08T22:07:57.524Z,-1.98
2023-02-08T22:10:31.261Z,-2.05
2023-02-08T22:12:59.716Z,-1.91
2023-02-08T22:15:29.707Z,-1.88
2023-02-08T22:18:01.172Z,-1.74
2023-02-08T22:20:30.189Z,-2.34
2023-02-08T22:22:58.175Z,-2.46
2023-02-08T22:25:26.259Z,-2.39
2023-02-08T22:27:54.185Z,-2.34
2023-02-08T22:30:25.320Z,-1.87
2023-02-08T22:32:53.532Z,-1.72
2023-02-08T22:35:21.494Z,-1.63
2023-02-08T22:37:49.357Z,-1.84
2023-02-08T22:40:17.543Z,-1.91
2023-02-08T22:42:45.452Z,-1.86
2023-02-08T22:45:13.407Z,-1.58
2023-02-08T22:47:41.279Z,-1.52
2023-02-08T22:50:10.142Z,-1.59
2023-02-08T22:52:38.041Z,-1.38
2023-02-08T22:55:06.765Z,-1.47
2023-02-08T22:57:36.169Z,-1.35
2023-02-08T23:00:08.784Z,-1.56
2023-02-08T23:02:36.952Z,-1.63
2023-02-08T23:05:05.325Z,-1.52
2023-02-08T23:07:33.360Z,-1.59
2023-02-08T23:10:01.421Z,-1.59
2023-02-08T23:12:30.266Z,-1.61
2023-02-08T23:14:58.122Z,-1.95
2023-02-08T23:17:26.209Z,-1.75
2023-02-08T23:19:54.121Z,-1.96
2023-02-08T23:22:22.128Z,-1.94
2023-02-08T23:24:49.963Z,-1.74
2023-02-08T23:27:17.831Z,-2.01
2023-02-08T23:29:45.813Z,-2.03
2023-02-08T23:32:13.810Z,-1.81
2023-02-08T23:34:43.845Z,-2.03
2023-02-08T23:37:11.711Z,-2.21
2023-02-08T23:39:39.560Z,-2.15
2023-02-08T23:42:25.255Z,-2.07
2023-02-08T23:44:59.845Z,-1.96
2023-02-08T23:47:30.223Z,-1.84
2023-02-08T23:49:58.185Z,-1.89
2023-02-08T23:52:26.159Z,-1.98
2023-02-08T23:54:54.028Z,-2.04
2023-02-08T23:57:21.898Z,-2.58
2023-02-08T23:59:49.837Z,-1.99
